< < Back
Terminal Aerodrome Forecast


Current Version              Previous Versions:   1  2  3  4  5  6  7  8  9  

Terminal Aerodrome Forecast

155
FTUS44 KOHX 201600 AAB
TAFBNA
TAF AMD
KBNA 201600Z 2016/2112 22014G23KT P6SM VCSH SCT023 BKN035
     FM202100 27010G17KT P6SM SCT035=

Latest METAR

669
SAUS70 KWBC 210500
MTRBNA
METAR KBNA 210453Z 21003KT 10SM OVC080 11/06 A2990 RMK AO2 SLP124
T01110056


USA.gov is the U.S. government's official web portal to all federal, state and local government web resources and services.